עמוד ראשי
METAR-TAF:

METAR-TAF

שדות תעופה :

Sand Point, אלסקה, ארצות הברית

קו רוחב: 55-19N, קו אורך: 160-31W, גובה: 7מטר

תצפית מזג אוויר נוכחית

הדו"ח נערך לפני 22דקות, בשעה 17:30 UTC
רוח רגועה
טמפרטורת 8 צלסיוס
לחות 93%
לחץ 1012 hPa
ראות: 16.1קילומטר
מעט עננים בגובה 600רגל
עננים בינוניים בגובה 1000רגל
מעונן בגובה 1500רגל
גשם קל

METAR: PASD 191730Z 00000KT 10SM -RA FEW006 BKN010 OVC015 08/07 A2989 RMK AO2 PNO $

זמן: 09:52 (17:52 UTC)

תחזית

הדו"ח נערך לפני 1 שעות ו 53דקות, בשעה 15:59 UTC
תחזית בתוקף מ 19 ב 16 UTC עד 20 ב 12 UTC
רוח 5קשר מכיוון דרום/דרום-מזרח
ראות: 6.4קילומטר
מעונן בגובה 500רגל
גשם קל, אד
מ 19 ב 2300UTC
רוח 5קשר מכיוון מזרח/דרום-מזרח
ראות: 3.2קילומטר
מעונן בגובה 600רגל
גשם קל,

TAF: PASD 191559Z 1916/2012 15005KT 4SM -RA BR OVC005 FM192300 12005KT 2SM -RA OVC006

תצפיות ותחזיות מזג אוויר לגבי יותר מ- 4,000 שדות תעופה ברחבי העולם. דוחות METAR ו- TAF.

התחנות הזמינות מסומנות בנקודות צהובות ואדומות על גבי המפה.

העבר את העכבר לנקודה הצבעונית על מנת לראות את שם התחנה.

לאחר מכן, לחץ כדי לראות את תוכן ואת תחזיות מזג האוויר.

כדי לשנות את המפה: לחץ על הכפתורים הירוקים עם הפלוס השחור כדי להתקרב; על הכפתור הירוק עם המקף כדי להתרחק; או בחיצים הירוקים למפות סמוכות.


METAR-TAF: